createdAt,value
2017-03-13T00:00:35.855Z,0
2017-03-13T00:01:16.440Z,0
2017-03-13T00:01:57.085Z,0
2017-03-13T00:02:37.676Z,0
2017-03-13T00:03:18.242Z,0
2017-03-13T00:03:58.858Z,0
2017-03-13T00:04:39.444Z,0
2017-03-13T00:05:20.053Z,0
2017-03-13T00:06:00.633Z,0
2017-03-13T00:06:41.203Z,0
2017-03-13T00:07:21.786Z,0
2017-03-13T00:08:02.408Z,0
2017-03-13T00:08:43.001Z,0
2017-03-13T00:09:23.568Z,0
2017-03-13T00:10:04.145Z,0
2017-03-13T00:10:44.720Z,0
2017-03-13T00:11:25.305Z,0
2017-03-13T00:12:05.876Z,0
2017-03-13T00:12:46.450Z,0
2017-03-13T00:13:27.054Z,0
2017-03-13T00:14:07.651Z,0
2017-03-13T00:14:48.261Z,0
2017-03-13T00:15:28.844Z,0
2017-03-13T00:16:09.452Z,0
2017-03-13T00:16:50.024Z,0
2017-03-13T00:17:30.626Z,0
2017-03-13T00:18:11.233Z,0
2017-03-13T00:18:51.863Z,0
2017-03-13T00:19:32.440Z,0
2017-03-13T00:20:13.037Z,0
2017-03-13T00:20:53.637Z,0
2017-03-13T00:21:34.222Z,0
2017-03-13T00:22:14.841Z,0
2017-03-13T00:22:55.433Z,0
2017-03-13T00:23:36.091Z,0
2017-03-13T00:24:16.657Z,0
2017-03-13T00:24:57.236Z,0
2017-03-13T00:25:37.830Z,0
2017-03-13T00:26:18.430Z,0
2017-03-13T00:26:59.015Z,0
2017-03-13T00:27:39.597Z,0
2017-03-13T00:28:20.157Z,0
2017-03-13T00:29:00.758Z,0
2017-03-13T00:29:41.380Z,0
2017-03-13T00:30:21.957Z,0
2017-03-13T00:31:02.523Z,0
2017-03-13T00:31:43.116Z,0
2017-03-13T00:32:23.711Z,0
2017-03-13T00:33:04.343Z,0
2017-03-13T00:33:44.909Z,0
2017-03-13T00:34:25.481Z,0
2017-03-13T00:35:06.078Z,0
2017-03-13T00:35:46.674Z,0
2017-03-13T00:36:27.310Z,0
2017-03-13T00:37:07.894Z,0
2017-03-13T00:37:48.506Z,0
2017-03-13T00:38:29.099Z,0
2017-03-13T00:39:09.682Z,0
2017-03-13T00:39:50.261Z,0
2017-03-13T00:40:30.840Z,0
2017-03-13T00:41:11.414Z,0
2017-03-13T00:41:52.020Z,0
2017-03-13T00:42:32.589Z,0
2017-03-13T00:43:13.166Z,0
2017-03-13T00:43:53.762Z,0
2017-03-13T00:44:34.338Z,0
2017-03-13T00:45:14.909Z,0
2017-03-13T00:45:55.521Z,0
2017-03-13T00:46:36.096Z,0
2017-03-13T00:47:16.681Z,0
2017-03-13T00:47:57.274Z,0
2017-03-13T00:48:37.898Z,0
2017-03-13T00:49:18.471Z,0
2017-03-13T00:49:59.042Z,0
2017-03-13T00:50:39.607Z,0
2017-03-13T00:51:20.168Z,0
2017-03-13T00:52:00.742Z,0
2017-03-13T00:52:41.324Z,0
2017-03-13T00:53:21.906Z,0
2017-03-13T00:54:02.478Z,0
2017-03-13T00:54:43.043Z,0
2017-03-13T00:55:23.622Z,0
2017-03-13T00:56:04.234Z,0
2017-03-13T00:56:44.817Z,0
2017-03-13T00:57:25.418Z,0
2017-03-13T00:58:06.010Z,0
2017-03-13T00:58:46.589Z,0
2017-03-13T00:59:27.183Z,0
2017-03-13T01:00:07.769Z,0
2017-03-13T01:00:48.346Z,0
2017-03-13T01:01:28.960Z,0
2017-03-13T01:02:09.582Z,0
2017-03-13T01:02:50.264Z,0
2017-03-13T01:03:30.872Z,0
2017-03-13T01:04:11.474Z,0
2017-03-13T01:04:52.093Z,0
2017-03-13T01:05:32.675Z,0
2017-03-13T01:06:13.272Z,0
2017-03-13T01:06:53.890Z,0
2017-03-13T01:07:34.494Z,0
2017-03-13T01:08:15.096Z,0
2017-03-13T01:08:55.707Z,0
2017-03-13T01:09:36.302Z,0
2017-03-13T01:10:16.922Z,0
2017-03-13T01:10:57.485Z,0
2017-03-13T01:11:38.082Z,0
2017-03-13T01:12:18.692Z,0
2017-03-13T01:12:59.256Z,0
2017-03-13T01:13:39.935Z,0
2017-03-13T01:14:20.553Z,0
2017-03-13T01:15:01.183Z,0
2017-03-13T01:15:41.766Z,0
2017-03-13T01:16:22.393Z,0
2017-03-13T01:17:02.945Z,0
2017-03-13T01:17:43.528Z,0
2017-03-13T01:18:24.142Z,0
2017-03-13T01:19:04.725Z,0
2017-03-13T01:19:45.362Z,0
2017-03-13T01:20:25.934Z,0
2017-03-13T01:21:06.538Z,0
2017-03-13T01:21:47.151Z,0
2017-03-13T01:22:27.723Z,0
2017-03-13T01:23:08.306Z,0
2017-03-13T01:23:48.890Z,0
2017-03-13T01:24:29.476Z,0
2017-03-13T01:25:10.062Z,0
2017-03-13T01:25:50.641Z,0
2017-03-13T01:26:31.254Z,0
2017-03-13T01:27:11.840Z,0
2017-03-13T01:27:52.451Z,0
2017-03-13T01:28:33.050Z,0
2017-03-13T01:29:13.647Z,0
2017-03-13T01:29:54.231Z,0
2017-03-13T01:30:34.804Z,0
2017-03-13T01:31:15.420Z,0
2017-03-13T01:31:56.027Z,0
2017-03-13T01:32:36.603Z,0
2017-03-13T01:33:17.214Z,0
2017-03-13T01:33:57.836Z,0
2017-03-13T01:34:38.413Z,0
2017-03-13T01:35:19.055Z,0
2017-03-13T01:35:59.663Z,0
2017-03-13T01:36:40.268Z,0
2017-03-13T01:37:20.888Z,0
2017-03-13T01:38:01.501Z,0
2017-03-13T01:38:42.080Z,0
2017-03-13T01:39:22.690Z,0
2017-03-13T01:40:03.290Z,0
2017-03-13T01:40:43.900Z,0
2017-03-13T01:41:24.497Z,0
2017-03-13T01:42:05.109Z,0
2017-03-13T01:42:45.702Z,0
2017-03-13T01:43:26.311Z,0
2017-03-13T01:44:06.909Z,0
2017-03-13T01:44:47.494Z,0
2017-03-13T01:45:28.083Z,0
2017-03-13T01:46:08.683Z,0
2017-03-13T01:46:49.306Z,0
2017-03-13T01:47:29.914Z,0
2017-03-13T01:48:10.497Z,0
2017-03-13T01:48:51.129Z,0
2017-03-13T01:49:31.716Z,0
2017-03-13T01:50:12.308Z,0
2017-03-13T01:50:52.893Z,0
2017-03-13T01:51:33.508Z,0
2017-03-13T01:52:14.125Z,0
2017-03-13T01:52:54.730Z,0
2017-03-13T01:53:35.425Z,0
2017-03-13T01:54:16.031Z,0
2017-03-13T01:54:56.617Z,0
2017-03-13T01:55:37.213Z,0
2017-03-13T01:56:17.962Z,0
2017-03-13T01:56:58.594Z,0
2017-03-13T01:57:39.190Z,0
2017-03-13T01:58:19.850Z,0
2017-03-13T01:59:00.502Z,0
2017-03-13T01:59:41.090Z,0
2017-03-13T02:00:21.706Z,0
2017-03-13T02:01:02.319Z,0
2017-03-13T02:01:42.904Z,0
2017-03-13T02:02:23.489Z,0
2017-03-13T02:03:04.067Z,0
2017-03-13T02:03:44.664Z,0
2017-03-13T02:04:25.239Z,0
2017-03-13T02:05:05.852Z,0
2017-03-13T02:05:46.448Z,0
2017-03-13T02:06:27.054Z,0
2017-03-13T02:07:07.678Z,0
2017-03-13T02:07:48.286Z,0
2017-03-13T02:08:28.874Z,0
2017-03-13T02:09:09.486Z,0
2017-03-13T02:09:50.075Z,0
2017-03-13T02:10:30.687Z,0
2017-03-13T02:11:11.333Z,0
2017-03-13T02:11:52.049Z,0
2017-03-13T02:12:32.624Z,0
2017-03-13T02:13:13.221Z,0
2017-03-13T02:13:53.853Z,0
2017-03-13T02:14:34.447Z,0
2017-03-13T02:15:15.091Z,0
2017-03-13T02:15:55.705Z,0
2017-03-13T02:16:36.322Z,0
2017-03-13T02:17:16.898Z,0
2017-03-13T02:17:57.502Z,0
2017-03-13T02:18:38.092Z,0
2017-03-13T02:19:18.720Z,0
2017-03-13T02:19:59.353Z,0
2017-03-13T02:20:39.976Z,0
2017-03-13T02:21:20.559Z,0
2017-03-13T02:22:01.159Z,0
2017-03-13T02:22:41.773Z,0
2017-03-13T02:23:22.380Z,0
2017-03-13T02:24:02.961Z,0
2017-03-13T02:24:43.556Z,0
2017-03-13T02:25:24.130Z,0
2017-03-13T02:26:04.733Z,0
2017-03-13T02:26:45.336Z,0
2017-03-13T02:27:25.922Z,0
2017-03-13T02:28:06.511Z,0
2017-03-13T02:28:47.117Z,0
2017-03-13T02:29:27.718Z,0
2017-03-13T02:30:08.285Z,0
2017-03-13T02:30:48.874Z,0
2017-03-13T02:31:29.473Z,0
2017-03-13T02:32:10.052Z,0
2017-03-13T02:32:50.641Z,0
2017-03-13T02:33:31.244Z,0
2017-03-13T02:34:11.838Z,0
2017-03-13T02:34:52.460Z,0
2017-03-13T02:35:33.056Z,0
2017-03-13T02:36:13.625Z,0
2017-03-13T02:36:54.221Z,0
2017-03-13T02:37:34.803Z,0
2017-03-13T02:38:15.422Z,0
2017-03-13T02:38:56.011Z,0
2017-03-13T02:39:36.591Z,0
2017-03-13T02:40:17.198Z,0
2017-03-13T02:40:57.798Z,0
2017-03-13T02:41:38.432Z,0
2017-03-13T02:42:18.994Z,0
2017-03-13T02:42:59.579Z,0
2017-03-13T02:43:40.188Z,0
2017-03-13T02:44:20.791Z,0
2017-03-13T02:45:01.387Z,0
2017-03-13T02:45:42.026Z,0
2017-03-13T02:46:22.585Z,0
2017-03-13T02:47:03.174Z,0
2017-03-13T02:47:43.767Z,0
2017-03-13T02:48:24.362Z,0
2017-03-13T02:49:04.970Z,0
2017-03-13T02:49:45.593Z,0
2017-03-13T02:50:26.169Z,0
2017-03-13T02:51:06.790Z,0
2017-03-13T02:51:47.379Z,0
2017-03-13T02:52:27.983Z,0
2017-03-13T02:53:08.587Z,0
2017-03-13T02:53:49.198Z,0
2017-03-13T02:54:29.796Z,0
2017-03-13T02:55:10.401Z,0
2017-03-13T02:55:50.998Z,0
2017-03-13T02:56:31.635Z,0
2017-03-13T02:57:12.248Z,0
2017-03-13T02:57:52.881Z,0
2017-03-13T02:58:33.494Z,0
2017-03-13T02:59:14.159Z,0
2017-03-13T02:59:54.767Z,0
2017-03-13T03:00:35.336Z,0
2017-03-13T03:01:15.963Z,0
2017-03-13T03:01:56.527Z,0
2017-03-13T03:02:37.099Z,0
2017-03-13T03:03:17.698Z,0
2017-03-13T03:03:58.291Z,0
2017-03-13T03:04:38.867Z,0
2017-03-13T03:05:19.457Z,0
2017-03-13T03:06:00.062Z,0
2017-03-13T03:06:40.712Z,0
2017-03-13T03:07:21.324Z,0
2017-03-13T03:08:01.929Z,0
2017-03-13T03:08:42.515Z,0
2017-03-13T03:09:23.149Z,0
2017-03-13T03:10:03.762Z,0
2017-03-13T03:10:44.368Z,0
2017-03-13T03:11:24.957Z,0
2017-03-13T03:12:05.586Z,0
2017-03-13T03:12:46.175Z,0
2017-03-13T03:13:26.833Z,0
2017-03-13T03:14:07.367Z,0
2017-03-13T03:14:47.972Z,0
2017-03-13T03:15:28.533Z,0
2017-03-13T03:16:09.124Z,0
2017-03-13T03:16:49.728Z,0
2017-03-13T03:17:30.304Z,0
2017-03-13T03:18:10.874Z,0
2017-03-13T03:18:51.495Z,0
2017-03-13T03:19:32.080Z,0
2017-03-13T03:20:12.691Z,0
2017-03-13T03:20:53.278Z,0
2017-03-13T03:21:33.877Z,0
2017-03-13T03:22:14.474Z,0
2017-03-13T03:22:55.065Z,0
2017-03-13T03:23:35.664Z,0
2017-03-13T03:24:16.252Z,0
2017-03-13T03:24:56.867Z,0
2017-03-13T03:25:37.457Z,0
2017-03-13T03:26:18.046Z,0
2017-03-13T03:26:58.664Z,0
2017-03-13T03:27:39.273Z,0
2017-03-13T03:28:19.865Z,0
2017-03-13T03:29:00.457Z,0
2017-03-13T03:29:41.059Z,0
2017-03-13T03:30:21.683Z,0
2017-03-13T03:31:02.272Z,0
2017-03-13T03:31:42.863Z,0
2017-03-13T03:32:23.460Z,0
2017-03-13T03:33:04.112Z,0
2017-03-13T03:33:44.683Z,0
2017-03-13T03:34:25.292Z,0
2017-03-13T03:35:05.887Z,0
2017-03-13T03:35:46.538Z,0
2017-03-13T03:36:27.136Z,0
2017-03-13T03:37:07.721Z,0
2017-03-13T03:37:48.299Z,0
2017-03-13T03:38:28.907Z,0
2017-03-13T03:39:09.559Z,0
2017-03-13T03:39:50.165Z,0
2017-03-13T03:40:30.777Z,0
2017-03-13T03:41:11.376Z,0
2017-03-13T03:41:52.012Z,0
2017-03-13T03:42:32.596Z,0
2017-03-13T03:43:13.195Z,0
2017-03-13T03:43:53.782Z,0
2017-03-13T03:44:34.356Z,0
2017-03-13T03:45:14.938Z,0
2017-03-13T03:45:55.584Z,0
2017-03-13T03:46:36.167Z,0
2017-03-13T03:47:16.766Z,0
2017-03-13T03:47:57.365Z,0
2017-03-13T03:48:38.005Z,0
2017-03-13T03:49:18.610Z,0
2017-03-13T03:49:59.219Z,0
2017-03-13T03:50:39.781Z,0
2017-03-13T03:51:20.391Z,0
2017-03-13T03:52:00.993Z,0
2017-03-13T03:52:41.591Z,0
2017-03-13T03:53:22.180Z,0
2017-03-13T03:54:02.796Z,0
2017-03-13T03:54:43.410Z,0
2017-03-13T03:55:24.032Z,0
2017-03-13T03:56:04.584Z,0
2017-03-13T03:56:45.235Z,0
2017-03-13T03:57:25.841Z,0
2017-03-13T03:58:06.435Z,0
2017-03-13T03:58:47.018Z,0
2017-03-13T03:59:27.636Z,0
2017-03-13T04:00:08.221Z,0
2017-03-13T04:00:48.809Z,0
2017-03-13T04:01:29.412Z,0
2017-03-13T04:02:10.017Z,0
2017-03-13T04:02:50.588Z,0
2017-03-13T04:03:31.185Z,0
2017-03-13T04:04:11.793Z,0
2017-03-13T04:04:52.380Z,0
2017-03-13T04:05:32.983Z,0
2017-03-13T04:06:13.565Z,0
2017-03-13T04:06:54.151Z,0
2017-03-13T04:07:34.764Z,0
2017-03-13T04:08:15.386Z,0
2017-03-13T04:08:55.952Z,0
2017-03-13T04:09:36.527Z,0
2017-03-13T04:10:17.100Z,0
2017-03-13T04:10:57.728Z,0
2017-03-13T04:11:38.315Z,0
2017-03-13T04:12:18.905Z,0
2017-03-13T04:12:59.477Z,0
2017-03-13T04:13:40.070Z,0
2017-03-13T04:14:20.678Z,0
2017-03-13T04:15:01.291Z,0
2017-03-13T04:15:41.865Z,0
2017-03-13T04:16:22.520Z,0
2017-03-13T04:17:03.094Z,0
2017-03-13T04:17:43.644Z,0
2017-03-13T04:18:24.244Z,0
2017-03-13T04:19:04.926Z,0
2017-03-13T04:19:45.555Z,0
2017-03-13T04:20:26.160Z,0
2017-03-13T04:21:06.777Z,0
2017-03-13T04:21:47.362Z,0
2017-03-13T04:22:27.950Z,0
2017-03-13T04:23:08.561Z,0
2017-03-13T04:23:49.148Z,0
2017-03-13T04:24:29.747Z,0
2017-03-13T04:25:10.330Z,0
2017-03-13T04:25:50.923Z,0
2017-03-13T04:26:31.504Z,0
2017-03-13T04:27:12.098Z,0
2017-03-13T04:27:52.713Z,0
2017-03-13T04:28:33.325Z,0
2017-03-13T04:29:13.989Z,0
2017-03-13T04:29:54.608Z,0
2017-03-13T04:30:35.215Z,0
2017-03-13T04:31:15.802Z,0
2017-03-13T04:31:56.358Z,0
2017-03-13T04:32:36.958Z,0
2017-03-13T04:33:17.590Z,0
2017-03-13T04:33:58.226Z,0
2017-03-13T04:34:38.855Z,0
2017-03-13T04:35:19.454Z,0
2017-03-13T04:36:00.067Z,0
2017-03-13T04:36:40.674Z,0
2017-03-13T04:37:21.285Z,0
2017-03-13T04:38:01.897Z,0
2017-03-13T04:38:42.490Z,0
2017-03-13T04:39:23.072Z,0
2017-03-13T04:40:03.678Z,0
2017-03-13T04:40:44.305Z,0
2017-03-13T04:41:24.930Z,0
2017-03-13T04:42:05.495Z,0
2017-03-13T04:42:46.117Z,0
2017-03-13T04:43:26.756Z,0
2017-03-13T04:44:07.357Z,0
2017-03-13T04:44:47.950Z,0
2017-03-13T04:45:28.551Z,0
2017-03-13T04:46:09.158Z,0
2017-03-13T04:46:49.761Z,0
2017-03-13T04:47:30.391Z,0
2017-03-13T04:48:11.035Z,0
2017-03-13T04:48:51.641Z,0
2017-03-13T04:49:32.273Z,0
2017-03-13T04:50:12.865Z,0
2017-03-13T04:50:53.464Z,0
2017-03-13T04:51:34.073Z,0
2017-03-13T04:52:14.664Z,0
2017-03-13T04:52:55.241Z,0
2017-03-13T04:53:35.814Z,0
2017-03-13T04:54:16.375Z,0
2017-03-13T04:54:56.948Z,0
2017-03-13T04:55:37.530Z,0
2017-03-13T04:56:18.116Z,0
2017-03-13T04:56:58.686Z,0
2017-03-13T04:57:39.272Z,0
2017-03-13T04:58:19.851Z,0
2017-03-13T04:59:00.424Z,0
2017-03-13T04:59:41.000Z,0
2017-03-13T05:00:21.571Z,0
2017-03-13T05:01:02.147Z,0
2017-03-13T05:01:42.750Z,0
2017-03-13T05:02:23.322Z,0
2017-03-13T05:03:03.905Z,0
2017-03-13T05:03:44.501Z,0
2017-03-13T05:04:25.078Z,0
2017-03-13T05:05:05.654Z,0
2017-03-13T05:05:46.229Z,0
2017-03-13T05:06:26.810Z,0
2017-03-13T05:07:07.369Z,0
2017-03-13T05:07:47.950Z,0
2017-03-13T05:08:28.514Z,0
2017-03-13T05:09:09.087Z,0
2017-03-13T05:09:49.672Z,0
2017-03-13T05:10:30.257Z,0
2017-03-13T05:11:10.863Z,0
2017-03-13T05:11:51.438Z,0
2017-03-13T05:12:32.028Z,0
2017-03-13T05:13:12.633Z,0
2017-03-13T05:13:53.207Z,0
2017-03-13T05:14:33.782Z,0
2017-03-13T05:15:14.359Z,0
2017-03-13T05:15:54.920Z,0
2017-03-13T05:16:35.516Z,0
2017-03-13T05:17:16.148Z,0
2017-03-13T05:17:56.736Z,0
2017-03-13T05:18:37.345Z,0
2017-03-13T05:19:17.960Z,0
2017-03-13T05:19:58.541Z,0
2017-03-13T05:20:39.132Z,0
2017-03-13T05:21:21.486Z,0
2017-03-13T05:22:02.104Z,0
2017-03-13T05:22:42.645Z,0
2017-03-13T05:23:23.211Z,0
2017-03-13T05:24:03.809Z,0
2017-03-13T05:24:44.367Z,0
2017-03-13T05:25:24.945Z,0
2017-03-13T05:26:05.545Z,0
2017-03-13T05:26:46.137Z,0
2017-03-13T05:27:26.726Z,5
2017-03-13T05:28:07.324Z,5
2017-03-13T05:28:47.903Z,5
2017-03-13T05:29:28.489Z,5
2017-03-13T05:30:09.078Z,5
2017-03-13T05:30:49.665Z,5
2017-03-13T05:31:30.838Z,5
2017-03-13T05:32:11.402Z,5
2017-03-13T05:32:51.996Z,5
2017-03-13T05:33:32.593Z,5
2017-03-13T05:34:13.168Z,10
2017-03-13T05:34:53.747Z,10
2017-03-13T05:35:34.320Z,10
2017-03-13T05:36:14.897Z,10
2017-03-13T05:36:55.468Z,10
2017-03-13T05:37:36.046Z,10
2017-03-13T05:38:16.652Z,10
2017-03-13T05:38:57.249Z,15
2017-03-13T05:39:37.851Z,15
2017-03-13T05:40:18.455Z,15
2017-03-13T05:40:59.043Z,15
2017-03-13T05:41:39.690Z,15
2017-03-13T05:42:20.251Z,15
2017-03-13T05:43:00.856Z,15
2017-03-13T05:43:41.441Z,15
2017-03-13T05:44:22.026Z,15
2017-03-13T05:45:02.619Z,15
2017-03-13T05:45:43.220Z,15
2017-03-13T05:46:23.796Z,20
2017-03-13T05:47:04.381Z,20
2017-03-13T05:47:44.981Z,20
2017-03-13T05:48:25.586Z,20
2017-03-13T05:49:06.169Z,20
2017-03-13T05:49:46.742Z,20
2017-03-13T05:50:27.331Z,20
2017-03-13T05:51:07.943Z,20
2017-03-13T05:51:48.497Z,20
2017-03-13T05:52:29.074Z,25
2017-03-13T05:53:09.649Z,25
2017-03-13T05:53:50.246Z,25
2017-03-13T05:54:30.848Z,25
2017-03-13T05:55:11.443Z,25
2017-03-13T05:55:52.041Z,25
2017-03-13T05:59:37.045Z,35
2017-03-13T06:00:17.634Z,35
2017-03-13T06:00:58.316Z,35
2017-03-13T06:01:38.834Z,40
2017-03-13T06:02:19.494Z,40
2017-03-13T06:03:00.064Z,40
2017-03-13T06:03:40.671Z,45
2017-03-13T06:04:21.224Z,45
2017-03-13T06:05:01.842Z,45
2017-03-13T06:05:42.427Z,45
2017-03-13T06:06:23.038Z,50
2017-03-13T06:07:03.627Z,50
2017-03-13T06:07:44.195Z,50
2017-03-13T06:08:24.774Z,50
2017-03-13T06:09:05.345Z,45
2017-03-13T06:09:45.936Z,45
2017-03-13T06:10:26.520Z,45
2017-03-13T06:11:07.144Z,45
2017-03-13T06:11:47.730Z,45
2017-03-13T06:12:28.344Z,45
2017-03-13T06:13:08.940Z,45
2017-03-13T06:13:49.536Z,45
2017-03-13T06:14:30.105Z,45
2017-03-13T06:15:10.711Z,50
2017-03-13T06:15:51.290Z,50
2017-03-13T06:16:31.859Z,50
2017-03-13T06:17:12.432Z,50
2017-03-13T06:17:53.009Z,50
2017-03-13T06:18:33.607Z,55
2017-03-13T06:19:14.195Z,55
2017-03-13T06:19:54.792Z,55
2017-03-13T06:20:35.416Z,55
2017-03-13T06:21:15.986Z,55
2017-03-13T06:21:56.596Z,60
2017-03-13T06:22:37.196Z,60
2017-03-13T06:23:17.768Z,60
2017-03-13T06:23:58.340Z,60
2017-03-13T06:24:38.926Z,60
2017-03-13T06:25:19.534Z,60
2017-03-13T06:26:00.145Z,60
2017-03-13T06:26:40.703Z,60
2017-03-13T06:27:21.272Z,65
2017-03-13T06:28:01.884Z,65
2017-03-13T06:28:42.480Z,65
2017-03-13T06:29:23.088Z,70
2017-03-13T06:30:03.678Z,70
2017-03-13T06:30:44.296Z,75
2017-03-13T06:31:24.884Z,75
2017-03-13T06:32:05.529Z,80
2017-03-13T06:32:46.131Z,80
2017-03-13T06:33:26.776Z,80
2017-03-13T06:34:07.365Z,80
2017-03-13T06:34:47.972Z,80
2017-03-13T06:35:28.561Z,85
2017-03-13T06:36:09.245Z,85
2017-03-13T06:36:49.816Z,90
2017-03-13T06:37:30.413Z,95
2017-03-13T06:38:11.038Z,105
2017-03-13T06:38:51.640Z,105
2017-03-13T06:39:32.271Z,105
2017-03-13T06:40:12.893Z,110
2017-03-13T06:40:53.487Z,110
2017-03-13T06:41:34.086Z,110
2017-03-13T06:42:14.680Z,110
2017-03-13T06:42:55.247Z,110
2017-03-13T06:43:35.826Z,110
2017-03-13T06:44:16.425Z,105
2017-03-13T06:44:57.047Z,105
2017-03-13T06:45:37.642Z,105
2017-03-13T06:46:18.266Z,105
2017-03-13T06:46:58.946Z,105
2017-03-13T06:47:39.527Z,100
2017-03-13T06:48:20.084Z,105
2017-03-13T06:49:00.658Z,105
2017-03-13T06:49:41.232Z,105
2017-03-13T06:50:21.810Z,105
2017-03-13T06:51:02.393Z,105
2017-03-13T06:51:42.976Z,105
2017-03-13T06:52:23.541Z,105
2017-03-13T06:53:04.140Z,105
2017-03-13T06:53:44.760Z,105
2017-03-13T06:54:25.358Z,105
2017-03-13T06:55:05.974Z,105
2017-03-13T06:55:46.607Z,105
2017-03-13T06:56:27.184Z,105
2017-03-13T06:57:07.788Z,105
2017-03-13T06:57:48.409Z,105
2017-03-13T06:58:29.378Z,105
2017-03-13T06:59:09.969Z,105
2017-03-13T06:59:50.558Z,105
2017-03-13T07:00:31.153Z,105
2017-03-13T07:01:11.732Z,105
2017-03-13T07:01:52.303Z,105
2017-03-13T07:02:32.883Z,105
2017-03-13T07:03:13.486Z,100
2017-03-13T07:03:54.124Z,105
2017-03-13T07:04:34.705Z,105
2017-03-13T07:05:15.373Z,105
2017-03-13T07:05:55.973Z,105
2017-03-13T07:06:36.564Z,105
2017-03-13T07:07:17.229Z,105
2017-03-13T07:07:57.785Z,105
2017-03-13T07:08:38.466Z,105
2017-03-13T07:09:19.063Z,105
2017-03-13T07:09:59.647Z,105
2017-03-13T07:10:40.640Z,105
2017-03-13T07:11:21.249Z,105
2017-03-13T07:12:01.874Z,110
2017-03-13T07:12:42.437Z,110
2017-03-13T07:13:23.020Z,110
2017-03-13T07:14:03.616Z,105
2017-03-13T07:14:44.311Z,110
2017-03-13T07:15:24.918Z,110
2017-03-13T07:16:05.572Z,115
2017-03-13T07:16:46.147Z,115
2017-03-13T07:17:26.734Z,120
2017-03-13T07:18:07.329Z,120
2017-03-13T07:18:47.937Z,120
2017-03-13T07:19:28.555Z,125
2017-03-13T07:20:09.186Z,130
2017-03-13T07:20:49.803Z,140
2017-03-13T07:21:30.437Z,145
2017-03-13T07:22:11.020Z,150
2017-03-13T07:22:51.613Z,160
2017-03-13T07:23:32.209Z,165
2017-03-13T07:24:12.798Z,175
2017-03-13T07:24:53.383Z,175
2017-03-13T07:25:33.972Z,170
2017-03-13T07:26:14.561Z,165
2017-03-13T07:26:55.161Z,170
2017-03-13T07:27:35.773Z,180
2017-03-13T07:28:16.369Z,190
2017-03-13T07:28:56.969Z,190
2017-03-13T07:29:37.559Z,190
2017-03-13T07:30:18.166Z,190
2017-03-13T07:30:58.776Z,200
2017-03-13T07:31:39.396Z,280
2017-03-13T07:32:19.977Z,450
2017-03-13T07:33:00.550Z,510
2017-03-13T07:33:41.162Z,520
2017-03-13T07:34:21.723Z,665
2017-03-13T07:35:02.378Z,620
2017-03-13T07:35:42.976Z,665
2017-03-13T07:36:23.567Z,660
2017-03-13T07:37:04.157Z,850
2017-03-13T07:37:44.782Z,890
2017-03-13T07:38:25.407Z,920
2017-03-13T07:39:05.977Z,1035
2017-03-13T07:39:46.603Z,895
2017-03-13T07:40:27.217Z,500
2017-03-13T07:41:07.867Z,410
2017-03-13T07:41:48.476Z,570
2017-03-13T07:42:29.070Z,760
2017-03-13T07:43:09.654Z,840
2017-03-13T07:43:50.302Z,900
2017-03-13T07:44:30.907Z,795
2017-03-13T07:45:11.433Z,780
2017-03-13T07:45:52.013Z,775
2017-03-13T07:46:32.594Z,715
2017-03-13T07:47:13.185Z,420
2017-03-13T07:47:53.771Z,605
2017-03-13T07:48:34.346Z,840
2017-03-13T07:49:14.941Z,835
2017-03-13T07:49:55.531Z,700
2017-03-13T07:50:36.167Z,575
2017-03-13T07:51:16.766Z,580
2017-03-13T07:51:57.393Z,640
2017-03-13T07:52:38.042Z,675
2017-03-13T07:53:18.603Z,655
2017-03-13T07:53:59.205Z,570
2017-03-13T07:54:39.789Z,485
2017-03-13T07:55:20.372Z,525
2017-03-13T07:56:00.970Z,420
2017-03-13T07:56:41.580Z,575
2017-03-13T07:57:22.181Z,740
2017-03-13T07:58:02.761Z,820
2017-03-13T07:58:43.361Z,745
2017-03-13T07:59:23.965Z,780
2017-03-13T08:00:04.592Z,600
2017-03-13T08:00:45.169Z,555
2017-03-13T08:01:25.748Z,560
2017-03-13T08:02:06.334Z,455
2017-03-13T08:02:46.913Z,715
2017-03-13T08:03:27.484Z,715
2017-03-13T08:04:08.910Z,775
2017-03-13T08:04:49.504Z,895
2017-03-13T08:05:30.080Z,485
2017-03-13T08:06:10.682Z,465
2017-03-13T08:06:51.237Z,340
2017-03-13T08:07:31.828Z,265
2017-03-13T08:08:12.411Z,330
2017-03-13T08:08:52.998Z,590
2017-03-13T08:09:33.571Z,895
2017-03-13T08:10:14.193Z,845
2017-03-13T08:10:54.806Z,765
2017-03-13T08:11:35.385Z,615
2017-03-13T08:12:15.981Z,830
2017-03-13T08:12:56.579Z,820
2017-03-13T08:13:37.183Z,335
2017-03-13T08:14:17.802Z,260
2017-03-13T08:14:58.399Z,205
2017-03-13T08:15:39.009Z,205
2017-03-13T08:16:19.603Z,230
2017-03-13T08:17:00.209Z,190
2017-03-13T08:17:40.812Z,185
2017-03-13T08:18:21.446Z,220
2017-03-13T08:19:02.030Z,480
2017-03-13T08:19:42.604Z,530
2017-03-13T08:20:23.192Z,395
2017-03-13T08:21:03.803Z,240
2017-03-13T08:21:44.386Z,180
2017-03-13T08:22:24.948Z,195
2017-03-13T08:23:05.537Z,210
2017-03-13T08:23:46.142Z,260
2017-03-13T08:24:27.555Z,225
2017-03-13T08:25:08.011Z,230
2017-03-13T08:25:48.602Z,295
2017-03-13T08:26:29.193Z,210
2017-03-13T08:27:09.773Z,150
2017-03-13T08:27:50.349Z,145
2017-03-13T08:28:30.916Z,150
2017-03-13T08:29:11.524Z,165
2017-03-13T08:29:52.115Z,180
2017-03-13T08:30:32.715Z,190
2017-03-13T08:31:13.305Z,180
2017-03-13T08:31:53.899Z,260
2017-03-13T08:32:34.501Z,570
2017-03-13T08:33:15.080Z,305
2017-03-13T08:33:55.671Z,335
2017-03-13T08:34:36.275Z,445
2017-03-13T08:35:16.886Z,350
2017-03-13T08:35:57.490Z,180
2017-03-13T08:36:38.077Z,160
2017-03-13T08:37:18.676Z,165
2017-03-13T08:37:59.277Z,155
2017-03-13T08:38:39.875Z,185
2017-03-13T08:39:20.469Z,275
2017-03-13T08:40:01.056Z,180
2017-03-13T08:40:41.634Z,145
2017-03-13T08:41:22.219Z,150
2017-03-13T08:42:02.821Z,165
2017-03-13T08:42:43.413Z,165
2017-03-13T08:43:23.977Z,145
2017-03-13T08:44:04.612Z,140
2017-03-13T08:44:45.202Z,145
2017-03-13T08:45:25.779Z,165
2017-03-13T08:46:06.378Z,170
2017-03-13T08:46:46.958Z,160
2017-03-13T08:47:27.530Z,145
2017-03-13T08:48:08.107Z,140
2017-03-13T08:48:48.682Z,140
2017-03-13T08:49:29.298Z,150
2017-03-13T08:50:09.900Z,165
2017-03-13T08:50:50.522Z,175
2017-03-13T08:51:31.108Z,170
2017-03-13T08:52:11.694Z,150
2017-03-13T08:52:52.309Z,165
2017-03-13T08:53:32.931Z,210
2017-03-13T08:54:13.519Z,220
2017-03-13T08:54:54.106Z,210
2017-03-13T08:55:34.688Z,165
2017-03-13T08:56:15.290Z,150
2017-03-13T08:56:55.895Z,145
2017-03-13T08:57:36.563Z,145
2017-03-13T08:58:17.178Z,150
2017-03-13T08:58:57.763Z,155
2017-03-13T08:59:38.383Z,170
2017-03-13T09:00:18.985Z,190
2017-03-13T09:00:59.567Z,205
2017-03-13T09:01:40.140Z,235
2017-03-13T09:02:20.723Z,225
2017-03-13T09:03:01.348Z,205
2017-03-13T09:03:41.936Z,180
2017-03-13T09:04:22.511Z,170
2017-03-13T09:05:03.107Z,185
2017-03-13T09:05:43.689Z,170
2017-03-13T09:06:24.315Z,165
2017-03-13T09:07:04.925Z,165
2017-03-13T09:07:45.513Z,170
2017-03-13T09:08:26.102Z,180
2017-03-13T09:09:06.711Z,140
2017-03-13T09:09:47.281Z,135
2017-03-13T09:10:27.871Z,140
2017-03-13T09:11:08.465Z,140
2017-03-13T09:11:49.066Z,145
2017-03-13T09:12:29.645Z,150
2017-03-13T09:13:10.230Z,160
2017-03-13T09:13:50.806Z,165
2017-03-13T09:14:31.427Z,185
2017-03-13T09:15:12.021Z,205
2017-03-13T09:15:52.615Z,220
2017-03-13T09:16:33.180Z,230
2017-03-13T09:17:13.780Z,235
2017-03-13T09:17:54.421Z,240
2017-03-13T09:18:35.087Z,245
2017-03-13T09:19:15.676Z,245
2017-03-13T09:19:56.272Z,240
2017-03-13T09:20:36.924Z,235
2017-03-13T09:21:17.531Z,235
2017-03-13T09:21:58.120Z,240
2017-03-13T09:22:38.744Z,235
2017-03-13T09:23:19.302Z,230
2017-03-13T09:23:59.892Z,230
2017-03-13T09:24:40.503Z,230
2017-03-13T09:25:21.064Z,225
2017-03-13T09:26:01.659Z,225
2017-03-13T09:26:42.233Z,225
2017-03-13T09:27:22.803Z,225
2017-03-13T09:28:03.386Z,225
2017-03-13T09:28:43.974Z,225
2017-03-13T09:29:24.557Z,225
2017-03-13T09:30:05.142Z,225
2017-03-13T09:30:45.732Z,225
2017-03-13T09:31:26.319Z,225
2017-03-13T09:32:06.893Z,220
2017-03-13T09:32:47.495Z,220
2017-03-13T09:33:28.099Z,220
2017-03-13T09:34:08.708Z,220
2017-03-13T09:34:49.297Z,220
2017-03-13T09:35:29.913Z,215
2017-03-13T09:36:10.497Z,215
2017-03-13T09:36:51.088Z,215
2017-03-13T09:37:31.655Z,215
2017-03-13T09:38:12.232Z,215
2017-03-13T09:38:52.815Z,215
2017-03-13T09:39:33.424Z,210
2017-03-13T09:40:13.999Z,210
2017-03-13T09:40:54.589Z,205
2017-03-13T09:41:35.168Z,205
2017-03-13T09:42:15.781Z,200
2017-03-13T09:42:56.390Z,200
2017-03-13T09:43:36.978Z,195
2017-03-13T09:44:17.553Z,195
2017-03-13T09:44:58.141Z,195
2017-03-13T09:45:38.730Z,190
2017-03-13T09:46:19.308Z,190
2017-03-13T09:46:59.891Z,190
2017-03-13T09:47:40.485Z,190